Time;durP1;ratioP1;P1;durP2;ratioP2;P2;SDS_P1;SDS_P2;PMS_P1;PMS_P2;Temp;Humidity;BMP_temperature;BMP_pressure;BME280_temperature;BME280_humidity;BME280_pressure;Samples;Min_cycle;Max_cycle;Signal;HPM_P1;HPM_P2
2021/07/12 05:05:25;;;;;;;13.20;7.13;;;14.20;99.90;;;;;;1420442;23;20954;-89
2021/07/12 05:08:10;;;;;;;6.67;5.97;;;14.40;99.90;;;;;;4902794;29;20463;-88
2021/07/12 05:10:41;;;;;;;8.20;7.40;;;14.60;99.90;;;;;;4888044;29;20436;-91
2021/07/12 05:13:08;;;;;;;12.23;8.40;;;14.70;99.90;;;;;;4891499;29;20283;-91
2021/07/12 05:15:34;;;;;;;8.17;6.83;;;14.80;99.90;;;;;;4879564;29;20473;-90
2021/07/12 05:18:00;;;;;;;9.10;7.30;;;14.90;99.90;;;;;;4885251;29;21017;-90
2021/07/12 05:20:27;;;;;;;7.33;6.70;;;14.80;99.90;;;;;;4886437;29;20536;-90
2021/07/12 05:22:53;;;;;;;6.90;6.30;;;14.70;99.90;;;;;;4889211;29;20299;-90
2021/07/12 05:25:21;;;;;;;8.27;7.47;;;14.80;99.90;;;;;;4888272;29;21043;-87
2021/07/12 05:27:50;;;;;;;7.70;6.63;;;14.80;99.90;;;;;;4886695;29;20502;-87
2021/07/12 05:30:16;;;;;;;8.20;7.40;;;14.90;99.90;;;;;;4886138;29;20472;-87
2021/07/12 05:32:42;;;;;;;7.73;6.33;;;15.00;99.90;;;;;;4897763;29;20500;-87
2021/07/12 05:35:08;;;;;;;6.03;5.40;;;15.10;99.90;;;;;;4898357;29;20472;-86
2021/07/12 05:37:34;;;;;;;9.83;8.83;;;15.30;99.90;;;;;;4887911;29;20296;-88
2021/07/12 05:39:59;;;;;;;12.90;10.73;;;15.30;99.90;;;;;;4902566;29;20519;-87
2021/07/12 05:42:26;;;;;;;9.37;8.53;;;15.50;99.90;;;;;;4882702;29;20203;-87
2021/07/12 05:44:52;;;;;;;13.90;10.23;;;15.50;99.90;;;;;;4870467;29;20602;-87
2021/07/12 05:47:36;;;;;;;11.07;10.07;;;15.60;99.90;;;;;;4885805;29;20444;-87
2021/07/12 05:50:04;;;;;;;10.90;9.90;;;15.80;99.90;;;;;;4902158;29;20200;-87
2021/07/12 05:52:32;;;;;;;11.50;10.40;;;15.90;99.90;;;;;;4894447;29;20615;-86
2021/07/12 05:54:59;;;;;;;11.07;10.00;;;16.10;99.90;;;;;;4883891;29;20452;-87
2021/07/12 05:57:25;;;;;;;10.30;8.30;;;16.20;99.90;;;;;;4876782;29;20449;-87
2021/07/12 05:59:57;;;;;;;9.03;8.23;;;16.40;99.90;;;;;;4878068;29;20655;-86
2021/07/12 06:02:25;;;;;;;8.20;7.50;;;16.40;99.90;;;;;;4881263;29;20803;-87
2021/07/12 06:04:50;;;;;;;6.93;6.30;;;16.40;99.90;;;;;;4888115;29;20898;-87
2021/07/12 06:07:31;;;;;;;5.87;5.33;;;16.40;99.90;;;;;;4884457;29;20474;-87
2021/07/12 06:10:00;;;;;;;6.93;5.60;;;16.60;99.90;;;;;;4897041;29;20250;-88
2021/07/12 06:12:27;;;;;;;8.33;5.47;;;16.80;99.90;;;;;;4879636;29;20485;-87
2021/07/12 06:14:53;;;;;;;6.47;5.87;;;17.00;99.90;;;;;;4882809;29;20903;-88
2021/07/12 06:17:20;;;;;;;6.20;4.77;;;17.10;99.90;;;;;;4877585;29;20523;-91
2021/07/12 06:19:46;;;;;;;6.20;4.93;;;17.30;99.90;;;;;;4893830;29;20558;-90
2021/07/12 06:22:11;;;;;;;5.53;5.03;;;17.60;99.90;;;;;;4895997;29;20436;-94
2021/07/12 06:24:42;;;;;;;5.97;5.10;;;17.60;99.90;;;;;;4881253;29;20272;-90
2021/07/12 06:27:08;;;;;;;5.93;5.00;;;17.70;99.90;;;;;;4886423;29;20199;-94
2021/07/12 06:29:34;;;;;;;5.30;4.90;;;17.90;99.90;;;;;;4885733;29;20464;-89
2021/07/12 06:32:15;;;;;;;4.80;4.40;;;18.00;99.90;;;;;;4900683;29;20824;-90
2021/07/12 06:34:45;;;;;;;4.80;4.40;;;18.10;99.90;;;;;;4900943;29;20989;-91
2021/07/12 06:37:19;;;;;;;5.13;4.60;;;18.20;99.90;;;;;;4880597;29;20948;-93
2021/07/12 06:39:48;;;;;;;5.23;3.60;;;18.50;99.90;;;;;;4901339;29;20443;-89
2021/07/12 06:42:19;;;;;;;5.00;4.17;;;18.50;99.90;;;;;;4879268;29;20596;-92
2021/07/12 06:44:47;;;;;;;4.33;3.67;;;18.60;99.90;;;;;;4884725;29;20889;-91
2021/07/12 06:47:15;;;;;;;4.80;3.50;;;18.70;99.90;;;;;;4880629;29;20492;-91
2021/07/12 06:49:42;;;;;;;5.00;3.80;;;18.90;99.90;;;;;;4899602;29;20489;-92
2021/07/12 06:52:10;;;;;;;3.70;3.40;;;19.20;99.90;;;;;;4885368;29;20994;-93
2021/07/12 06:54:37;;;;;;;6.33;3.80;;;19.30;99.90;;;;;;4899421;29;20981;-90
2021/07/12 06:57:11;;;;;;;4.33;3.47;;;19.50;99.90;;;;;;4884023;29;20460;-91
2021/07/12 15:05:15;;;;;;;2.37;2.27;;;31.10;67.30;;;;;;507513;27;20820;-90
2021/07/12 15:07:51;;;;;;;2.33;2.20;;;30.30;67.90;;;;;;4849958;29;20518;-91
2021/07/12 15:10:30;;;;;;;2.20;2.00;;;30.20;68.40;;;;;;4841858;29;20474;-91
2021/07/12 15:12:59;;;;;;;2.20;2.10;;;29.80;70.40;;;;;;4837983;29;20509;-90
2021/07/12 15:15:27;;;;;;;3.00;2.10;;;29.80;71.30;;;;;;4830517;29;20521;-90
2021/07/12 15:18:00;;;;;;;3.43;2.40;;;29.80;73.00;;;;;;4838249;29;20480;-90
2021/07/12 15:20:36;;;;;;;2.80;2.60;;;29.80;71.30;;;;;;4838445;29;20472;-92
2021/07/12 15:23:09;;;;;;;3.00;2.30;;;29.80;76.20;;;;;;4830915;29;20594;-90
2021/07/12 15:29:35;;;;;;;2.20;2.10;;;29.00;79.20;;;;;;4857166;29;20529;-91
2021/07/12 15:32:09;;;;;;;2.10;2.00;;;28.60;80.20;;;;;;4842068;29;20488;-90
2021/07/12 15:34:41;;;;;;;2.23;2.13;;;28.70;79.80;;;;;;4854023;29;20466;-91
2021/07/12 15:37:22;;;;;;;2.23;2.13;;;28.90;82.10;;;;;;4840873;29;20473;-91
2021/07/12 15:39:52;;;;;;;3.00;2.00;;;29.30;80.10;;;;;;4837085;29;21178;-90
2021/07/12 15:42:26;;;;;;;2.97;2.77;;;29.70;79.10;;;;;;4840708;29;20525;-90
2021/07/12 15:44:57;;;;;;;2.40;2.20;;;29.80;83.20;;;;;;4857208;29;20477;-90
2021/07/12 15:47:50;;;;;;;2.50;2.40;;;30.00;82.20;;;;;;4845101;29;20651;-91
2021/07/12 15:50:20;;;;;;;2.50;2.37;;;29.70;81.90;;;;;;4833697;29;20477;-90
2021/07/12 15:53:05;;;;;;;2.70;2.50;;;29.30;82.40;;;;;;4850535;29;20486;-89
2021/07/12 15:55:33;;;;;;;3.80;2.20;;;28.60;82.50;;;;;;4832418;29;20815;-91
2021/07/12 15:58:05;;;;;;;4.67;2.70;;;28.50;82.00;;;;;;4831645;29;21001;-90
2021/07/12 16:00:34;;;;;;;2.53;2.33;;;28.90;81.80;;;;;;4847530;29;20471;-89
2021/07/12 16:03:03;;;;;;;3.80;2.40;;;28.70;81.80;;;;;;4842445;29;20481;-90
2021/07/12 16:05:30;;;;;;;2.50;2.30;;;28.20;83.00;;;;;;4841265;29;21190;-90
2021/07/12 16:07:58;;;;;;;2.83;2.30;;;27.80;86.40;;;;;;4849559;29;20837;-90
2021/07/12 16:10:27;;;;;;;2.67;2.47;;;27.50;87.70;;;;;;4844491;29;20472;-90
2021/07/12 16:13:05;;;;;;;2.40;2.20;;;27.20;89.10;;;;;;4839703;29;20498;-89
2021/07/12 16:18:12;;;;;;;2.30;2.20;;;26.90;88.80;;;;;;4852405;29;20660;-90
2021/07/12 16:20:40;;;;;;;2.40;2.20;;;26.70;91.20;;;;;;4851110;29;21589;-89
2021/07/12 16:23:22;;;;;;;7.20;2.43;;;26.60;91.40;;;;;;4847590;29;20462;-90
2021/07/12 16:25:55;;;;;;;2.37;2.20;;;26.80;91.00;;;;;;4847147;29;20498;-91
2021/07/12 16:31:07;;;;;;;2.40;2.20;;;27.20;89.50;;;;;;4850804;29;20465;-90
2021/07/12 16:33:38;;;;;;;3.07;2.27;;;27.30;89.60;;;;;;4833549;29;21212;-89
2021/07/12 16:36:07;;;;;;;2.47;2.23;;;27.60;90.30;;;;;;4850308;29;20466;-89
2021/07/12 16:38:33;;;;;;;2.20;2.10;;;27.80;89.90;;;;;;4837974;29;21106;-89
2021/07/12 16:41:01;;;;;;;2.93;2.37;;;27.80;88.80;;;;;;4853302;29;20202;-89
2021/07/12 16:43:30;;;;;;;2.47;2.27;;;27.90;88.50;;;;;;4838752;29;20488;-89
2021/07/12 16:45:56;;;;;;;2.20;2.10;;;27.80;87.80;;;;;;4845535;29;20470;-89
2021/07/12 16:48:24;;;;;;;2.47;2.37;;;27.50;89.50;;;;;;4840488;29;21051;-89
2021/07/12 16:50:50;;;;;;;2.00;1.90;;;27.10;90.80;;;;;;4848856;29;20554;-87
2021/07/12 16:53:16;;;;;;;2.40;2.30;;;26.70;92.30;;;;;;4853266;29;21029;-86
2021/07/12 16:55:42;;;;;;;2.33;2.07;;;26.60;93.00;;;;;;4850243;29;20205;-87
2021/07/12 16:58:07;;;;;;;2.33;2.23;;;26.40;93.10;;;;;;4850787;29;20296;-87
2021/07/12 17:00:33;;;;;;;3.53;2.57;;;26.50;93.50;;;;;;4851059;29;20796;-86
2021/07/12 17:02:59;;;;;;;2.50;2.17;;;26.50;93.70;;;;;;4839288;29;20321;-86
2021/07/12 17:05:25;;;;;;;2.73;2.53;;;26.50;93.60;;;;;;4850006;29;20232;-86
2021/07/12 17:07:51;;;;;;;2.77;2.57;;;26.50;93.50;;;;;;4852553;29;20209;-86
2021/07/12 17:10:16;;;;;;;3.37;2.23;;;26.20;92.60;;;;;;4850803;29;20193;-85
2021/07/12 17:12:42;;;;;;;2.70;2.50;;;26.10;93.50;;;;;;4848973;29;20505;-85
2021/07/12 17:15:10;;;;;;;2.57;2.37;;;26.00;94.50;;;;;;4831926;29;20380;-86
2021/07/12 17:17:36;;;;;;;2.33;2.23;;;25.90;94.60;;;;;;4833572;29;20205;-86
2021/07/12 17:20:06;;;;;;;2.30;2.20;;;25.80;95.70;;;;;;4852822;29;20509;-86
2021/07/12 17:22:32;;;;;;;2.40;2.20;;;25.80;96.00;;;;;;4839822;29;20458;-86
2021/07/12 17:24:58;;;;;;;3.07;2.60;;;25.70;95.60;;;;;;4847666;29;20763;-86
2021/07/12 17:27:27;;;;;;;2.47;2.27;;;25.70;95.90;;;;;;4834882;29;20780;-87
2021/07/12 17:29:54;;;;;;;2.50;2.30;;;25.90;95.40;;;;;;4848774;29;20210;-88
2021/07/12 17:32:23;;;;;;;3.20;2.57;;;26.60;94.80;;;;;;4856645;29;21051;-88
2021/07/12 17:34:53;;;;;;;4.07;2.10;;;27.10;94.40;;;;;;4850522;29;20527;-87
2021/07/12 17:37:22;;;;;;;2.20;2.10;;;27.40;93.30;;;;;;4842464;29;21185;-88
2021/07/12 17:39:48;;;;;;;2.47;2.27;;;27.30;93.50;;;;;;4851578;29;20965;-87
2021/07/12 17:42:14;;;;;;;2.37;2.17;;;27.30;92.90;;;;;;4858713;29;20466;-87
2021/07/12 17:44:40;;;;;;;2.33;2.23;;;27.20;93.20;;;;;;4853900;29;20446;-88
2021/07/12 17:47:06;;;;;;;2.60;2.40;;;26.70;94.10;;;;;;4853512;29;20476;-87
2021/07/12 17:49:32;;;;;;;2.67;2.47;;;26.20;95.20;;;;;;4848621;29;20850;-87
2021/07/12 17:51:57;;;;;;;2.63;2.43;;;25.80;96.30;;;;;;4857253;29;20550;-87
2021/07/12 17:54:23;;;;;;;3.03;2.80;;;25.40;96.40;;;;;;4851536;29;20737;-88
2021/07/12 17:56:49;;;;;;;2.63;2.43;;;25.20;97.60;;;;;;4856546;29;20202;-89
2021/07/12 17:59:15;;;;;;;3.00;2.00;;;25.20;98.30;;;;;;4837315;29;21047;-89
2021/07/12 18:01:41;;;;;;;2.10;2.00;;;25.20;98.30;;;;;;4848554;29;20595;-89
2021/07/12 18:04:06;;;;;;;2.47;2.27;;;25.10;98.80;;;;;;4838024;29;20197;-87
2021/07/12 18:06:32;;;;;;;5.23;2.93;;;25.20;98.70;;;;;;4855715;29;20225;-88
2021/07/12 18:08:58;;;;;;;2.97;2.43;;;25.30;98.70;;;;;;4846614;29;20276;-88
2021/07/12 18:11:26;;;;;;;2.20;2.10;;;25.30;98.00;;;;;;4858597;29;20465;-88
2021/07/12 18:13:54;;;;;;;2.47;2.37;;;25.30;97.80;;;;;;4833878;29;20534;-88
2021/07/12 18:16:22;;;;;;;4.53;2.87;;;25.50;98.00;;;;;;4841658;29;20474;-88
2021/07/12 18:18:47;;;;;;;3.07;2.87;;;25.90;97.30;;;;;;4839315;29;20786;-87
2021/07/12 18:21:14;;;;;;;3.80;2.50;;;26.20;96.10;;;;;;4842530;29;20527;-88
2021/07/12 18:23:42;;;;;;;2.43;2.33;;;26.20;96.10;;;;;;4843406;29;20193;-88
2021/07/12 18:26:10;;;;;;;6.57;2.63;;;25.90;96.10;;;;;;4844714;29;21028;-88
2021/07/12 18:28:36;;;;;;;2.80;2.60;;;25.60;96.70;;;;;;4843569;29;20469;-87
2021/07/12 18:31:04;;;;;;;2.90;2.60;;;25.40;96.80;;;;;;4854940;29;21218;-89
2021/07/12 18:33:31;;;;;;;3.20;2.50;;;25.30;98.10;;;;;;4840611;29;20493;-88
2021/07/12 18:36:00;;;;;;;3.03;2.40;;;25.20;97.90;;;;;;4852909;29;20944;-87
2021/07/12 18:38:34;;;;;;;2.40;2.30;;;25.00;97.70;;;;;;4842254;29;20473;-88
2021/07/12 18:41:01;;;;;;;2.70;2.50;;;24.80;98.50;;;;;;4858271;29;20469;-88
2021/07/12 18:43:37;;;;;;;3.50;2.20;;;24.80;99.10;;;;;;4836745;29;20466;-87
2021/07/12 18:46:04;;;;;;;2.50;2.40;;;24.60;99.90;;;;;;4842016;29;20466;-87
2021/07/12 18:48:31;;;;;;;4.63;3.00;;;24.50;99.90;;;;;;4842072;29;20553;-87
2021/07/12 18:51:07;;;;;;;3.33;3.13;;;24.30;99.90;;;;;;4855476;29;20465;-88
2021/07/12 18:53:34;;;;;;;3.33;3.13;;;24.20;99.90;;;;;;4845788;29;20493;-89
2021/07/12 18:56:01;;;;;;;6.93;2.93;;;24.10;99.90;;;;;;4838926;29;20447;-88
2021/07/12 18:58:34;;;;;;;3.03;2.40;;;24.00;99.90;;;;;;4855832;29;20478;-89
2021/07/12 19:01:00;;;;;;;3.07;2.80;;;23.80;99.90;;;;;;4842032;29;20979;-88
2021/07/12 19:03:26;;;;;;;3.03;2.83;;;23.60;99.90;;;;;;4858242;29;20463;-89
2021/07/12 19:05:59;;;;;;;3.27;3.00;;;23.40;99.90;;;;;;4850278;29;20217;-88
2021/07/12 19:08:25;;;;;;;3.50;3.20;;;23.30;99.90;;;;;;4841837;29;20447;-88
2021/07/12 19:10:53;;;;;;;3.07;2.87;;;23.20;99.90;;;;;;4841634;29;20448;-88
2021/07/12 19:13:21;;;;;;;4.10;3.40;;;23.10;99.90;;;;;;4856486;29;20680;-88
2021/07/12 19:15:47;;;;;;;4.00;3.17;;;23.00;99.90;;;;;;4841004;29;20472;-89
2021/07/12 19:18:14;;;;;;;2.97;2.50;;;22.90;99.90;;;;;;4837306;29;20462;-88
2021/07/12 19:20:48;;;;;;;2.70;2.50;;;22.80;99.90;;;;;;4837339;29;20194;-87
2021/07/12 19:23:14;;;;;;;3.70;2.93;;;22.80;99.90;;;;;;4853866;29;20805;-86
2021/07/12 19:25:43;;;;;;;7.90;2.90;;;22.90;99.90;;;;;;4849115;29;20889;-87
2021/07/12 19:28:11;;;;;;;2.73;2.53;;;22.90;99.90;;;;;;4839896;29;20459;-87
2021/07/12 19:30:45;;;;;;;2.63;2.50;;;22.80;99.90;;;;;;4841407;29;20815;-86
2021/07/12 19:33:10;;;;;;;3.70;2.83;;;22.70;99.90;;;;;;4840836;29;20481;-87
2021/07/12 19:35:36;;;;;;;4.97;3.23;;;22.60;99.90;;;;;;4853765;29;20996;-86
2021/07/12 19:38:03;;;;;;;3.17;2.97;;;22.50;99.90;;;;;;4852569;29;20625;-86
2021/07/12 19:40:36;;;;;;;3.10;2.80;;;22.40;99.90;;;;;;4822263;29;20201;-85
2021/07/12 19:43:03;;;;;;;4.93;3.13;;;22.40;99.90;;;;;;4841694;29;20445;-87
2021/07/12 19:45:29;;;;;;;2.90;2.63;;;22.50;99.90;;;;;;4830991;29;20474;-88
2021/07/12 19:47:55;;;;;;;3.03;2.83;;;22.60;99.90;;;;;;4839206;29;20971;-88
2021/07/12 19:50:22;;;;;;;2.83;2.70;;;22.60;99.90;;;;;;4856024;29;20449;-84
2021/07/12 19:52:56;;;;;;;3.60;3.03;;;22.50;99.90;;;;;;4840640;29;20497;-86
2021/07/12 19:55:28;;;;;;;2.50;2.40;;;22.50;99.90;;;;;;4858342;29;20457;-89
2021/07/12 19:57:54;;;;;;;3.73;2.93;;;22.40;99.90;;;;;;4852094;29;20474;-86
2021/07/12 20:00:23;;;;;;;3.30;3.10;;;22.40;99.90;;;;;;4841976;29;20458;-85
2021/07/12 20:02:52;;;;;;;3.93;2.90;;;22.30;99.90;;;;;;4846118;29;20210;-86
2021/07/12 20:05:20;;;;;;;5.10;2.87;;;22.20;99.90;;;;;;4844992;29;20474;-87
2021/07/12 22:53:41;;;;;;;3.87;3.57;;;20.60;99.90;;;;;;4860915;29;20510;-94
2021/07/12 22:56:28;;;;;;;4.60;4.20;;;20.50;99.90;;;;;;4859956;29;20463;-94
2021/07/12 23:09:27;;;;;;;6.10;4.33;;;20.70;99.90;;;;;;4830241;29;20814;-93
2021/07/12 23:15:31;;;;;;;5.13;4.40;;;20.60;99.90;;;;;;4860768;29;20466;-93
2021/07/12 23:27:02;;;;;;;4.57;4.07;;;20.50;99.90;;;;;;4852070;29;20462;-93
2021/07/12 23:29:48;;;;;;;4.73;4.30;;;20.50;99.90;;;;;;4857542;29;20502;-94
2021/07/12 23:32:14;;;;;;;5.13;4.60;;;20.50;99.90;;;;;;4858398;29;20581;-93
2021/07/12 23:34:41;;;;;;;5.80;5.30;;;20.50;99.90;;;;;;4860123;29;20479;-94
2021/07/12 23:37:08;;;;;;;5.40;5.00;;;20.50;99.90;;;;;;4863124;29;20461;-94
2021/07/12 23:39:34;;;;;;;5.40;5.00;;;20.40;99.90;;;;;;4864020;29;20478;-93
2021/07/12 23:42:00;;;;;;;8.10;4.47;;;20.30;99.90;;;;;;4866537;29;20739;-91
2021/07/12 23:44:25;;;;;;;5.07;4.67;;;20.20;99.90;;;;;;4861479;29;20478;-92
2021/07/12 23:46:51;;;;;;;5.30;4.13;;;20.10;99.90;;;;;;4865954;29;20264;-92
2021/07/12 23:49:17;;;;;;;4.30;4.00;;;20.10;99.90;;;;;;4864304;29;20205;-92
2021/07/12 23:51:46;;;;;;;5.23;4.13;;;20.10;99.90;;;;;;4865162;29;20549;-93
2021/07/12 23:54:16;;;;;;;3.97;3.63;;;20.00;99.90;;;;;;4857078;29;20221;-93
2021/07/12 23:56:43;;;;;;;5.13;4.10;;;20.00;99.90;;;;;;4868576;29;20468;-93
2021/07/12 23:59:08;;;;;;;4.30;3.23;;;19.90;99.90;;;;;;4863198;29;20466;-91
